Relevés horaires St-Hubert (Belgique)


Relevés horaires à St-Hubert - Mardi 23 Juin 2020
Heure UTC1 Température [°C] Vent [km/h] Hum. [%] Pres.4 [hPa] Visi. [Km] Nébu. [octa] Préc.5 [mm] Cond.
2m. Res. Ros. Dir.2 Vit. Moy. Raf.3
23:00 16.4 16.4 10.5 E 7.4 9.3 13.0 68 1023.2(-0.3/3h) 30 0/8 -- --
22:00 17.0 17.0 10.9 E 7.4 9.3 13.0 67 1023.4(0.2/3h) 30 0/8 -- --
21:00 17.3 17.3 11.5 E 7.4 7.4 11.1 69 1023.4(0.3/3h) 40 0/8 -- --
20:00 18.2 18.2 13.5 ENE 3.7 3.7 5.6 74 1023.1(0.0/3h) 30 0/8 -- --
19:00 22.1 22.1 12.3 NE 3.7 5.6 7.4 54 1022(-0.4/3h) 30 0/8 -- --
18:00 23.7 23.7 11.6 N 5.6 7.4 14.8 47 1021.6(-0.8/3h) 30 0/8 0/12h
--
17:00 24.4 24.4 10.9 NNE 5.6 7.4 11.1 43 1021.8(-1.0/3h) 40 0/8 -- --
16:00 24.6 24.6 9.7 NNE 5.6 7.4 13.0 39 1022(-1.1/3h) 29 0/8 -- --
15:00 24.1 24.1 9.5 ENE 5.6 7.4 14.8 40 1022.5(-1.1/3h) 27 0/8 -- --
14:00 23.9 23.9 12.4 NNO 1.9 7.4 14.8 49 1022.9(-0.8/3h) 35 0/8 -- --
13:00 23.0 23.0 10.7 NNO 5.6 7.4 13.0 46 1023.5(-0.5/3h) 35 0/8 -- --
12:00 21.9 21.9 10.2 NNO 5.6 7.4 13.0 47 1024.2(0.2/3h) 25 0/8 0/6h
--
11:00 20.8 20.8 10.5 E 5.6 7.4 13.0 52 1024.5(-0.2/3h) 25 0/8 -- --
10:00 20.1 20.1 10.0 NE 5.6 7.4 13.0 52 1024.6(0.1/3h) 21 0/8 -- --
09:00 19.2 19.2 9.5 E 5.6 7.4 13.0 53 1024.9(0.2/3h) 10 0/8 -- --
08:00 18.3 18.3 9.6 E 5.6 7.4 11.1 57 1025.3(0.5/3h) 25 0/8 -- --
07:00 16.5 16.5 11.0 ENE 5.6 7.4 13.0 70 1025.5(-0.2/3h) 23 0/8 -- --
06:00 14.5 14.5 9.5 ENE 5.6 7.4 9.3 72 1025.8(0.1/3h) 24 0/8 0/12h
--
05:00 12.7 12.7 8.4 ENE 5.6 5.6 9.3 75 1026.1(0.2/3h) 28 0/8 -- --
04:00 10.9 10.6 9.4 ENE 5.6 5.6 7.4 90 1026.7(-0.1/3h) 26 0/8 -- --
03:00 8.5 7.9 6.8 ENE 5.6 7.4 9.3 89 1027.1(0.2/3h) 22 0/8 -- --
02:00 11.5 11.3 9.2 ENE 5.6 5.6 9.3 86 1026.5(-0.2/3h) 21 0/8 -- --
01:00 9.2 8.7 7.9 NE 5.6 5.6 7.4 92 1027.2(0.0/3h) 17 0/8 -- --
00:00 10.7 10.4 9.1 ENE 5.6 5.6 7.4 90 1026.8(0.1/3h) 17 0/8 0/6h
0/24h
--

1 Coordinated Universal Time. Actuellement il est 00:00 locale et 22:00 UTC.

2 Le vent souffle depuis la direction indiquée vers la direction oposée.

3 Les rafales max. sont disponible 40 min après l'heure du relevé.

4 Pour les stations d'altitude (plus de 600m) le géopotentiel du niveau le plus proche de la pression obligatoire est indiqué.

5 Les stations disposant d'un diffuseur peuvent indiquer "trace". Cela signifie que des précipitations ont touchés le sol mais que la quantité est inférieure à 0.1 mm.

Récapitulatif de la journée
Température [°C] Vent [km/h] Ensoleillement4 [h] Precipitations totale5 [mm] Pression [Hpa]
Min1 Max.2 Moy.3 Max. Min Max.
8.1 24.7 7 14.8 0 h 0 min 0 1021.6 1027.2

1 Température minimale relevée entre 18:00 UTC la veille et 18:00 UTC le jour donné.

2 Température maximale relevée entre 06:00 UTC le jour donné et 06:00 UTC le lendemain.

3 Vent moyen de la journée basé sur les relevés horaires.

4 Ensoleillement en heures relevé entre 06:00 UTC la veille et 06:00 UTC le jour donné.

5 Précipitations totales tombées entre 06:00 UTC la jour donné et 06:00 UTC le lendemain.

Graphiques horaires